TimeCDT,TemperatureF,Dew PointF,Humidity,Sea Level PressureIn,VisibilityMPH,Wind Direction,Wind SpeedMPH,Gust SpeedMPH,PrecipitationIn,Events,Conditions,WindDirDegrees,DateUTC
12:15 AM,60.8,51.8,72,30.08,10.0,North,5.8,-,N/A,,Clear,360,2013-05-24 05:15:00
12:35 AM,60.8,51.8,72,30.08,10.0,North,5.8,-,N/A,,Clear,360,2013-05-24 05:35:00
12:55 AM,59.0,51.8,77,30.08,10.0,NNW,4.6,-,N/A,,Clear,340,2013-05-24 05:55:00
1:15 AM,59.0,51.8,77,30.09,10.0,NNW,3.5,-,N/A,,Clear,340,2013-05-24 06:15:00
1:35 AM,59.0,51.8,77,30.10,10.0,NNW,3.5,-,N/A,,Clear,340,2013-05-24 06:35:00
1:55 AM,59.0,51.8,77,30.10,10.0,Calm,Calm,-,N/A,,Clear,0,2013-05-24 06:55:00
2:15 AM,59.0,51.8,77,30.12,10.0,Calm,Calm,-,N/A,,Clear,0,2013-05-24 07:15:00
2:35 AM,59.0,51.8,77,30.11,10.0,Calm,Calm,-,N/A,,Clear,0,2013-05-24 07:35:00
2:55 AM,57.2,51.8,82,30.11,10.0,Calm,Calm,-,N/A,,Clear,0,2013-05-24 07:55:00
3:15 AM,55.4,51.8,88,30.11,10.0,Calm,Calm,-,N/A,,Clear,0,2013-05-24 08:15:00
3:35 AM,55.4,51.8,88,30.12,10.0,Calm,Calm,-,N/A,,Mostly Cloudy,0,2013-05-24 08:35:00
3:55 AM,57.2,51.8,82,30.13,10.0,Calm,Calm,-,N/A,,Overcast,0,2013-05-24 08:55:00
4:15 AM,59.0,51.8,77,30.13,10.0,Calm,Calm,-,N/A,,Overcast,0,2013-05-24 09:15:00
4:35 AM,59.0,51.8,77,30.13,10.0,Calm,Calm,-,N/A,,Overcast,0,2013-05-24 09:35:00
4:55 AM,59.0,51.8,77,30.14,10.0,Calm,Calm,-,N/A,,Overcast,0,2013-05-24 09:55:00
5:15 AM,59.0,51.8,77,30.14,10.0,NNW,3.5,-,N/A,,Overcast,330,2013-05-24 10:15:00
5:35 AM,59.0,51.8,77,30.15,10.0,North,6.9,-,N/A,,Overcast,360,2013-05-24 10:35:00
5:55 AM,59.0,51.8,77,30.16,10.0,NNW,10.4,-,N/A,,Overcast,340,2013-05-24 10:55:00
6:15 AM,59.0,51.8,77,30.18,10.0,North,12.7,18.4,N/A,,Overcast,360,2013-05-24 11:15:00
6:35 AM,59.0,50.0,72,30.19,10.0,North,10.4,-,N/A,,Overcast,360,2013-05-24 11:35:00
6:55 AM,57.2,50.0,77,30.20,10.0,North,13.8,17.3,N/A,,Overcast,360,2013-05-24 11:55:00
7:15 AM,57.2,46.4,67,30.21,10.0,North,11.5,17.3,N/A,,Overcast,360,2013-05-24 12:15:00
7:35 AM,57.2,46.4,67,30.22,10.0,North,11.5,-,N/A,,Overcast,360,2013-05-24 12:35:00
7:55 AM,57.2,46.4,67,30.23,10.0,North,11.5,-,N/A,,Overcast,360,2013-05-24 12:55:00
8:15 AM,59.0,44.6,59,30.25,10.0,North,9.2,-,N/A,,Overcast,10,2013-05-24 13:15:00
8:35 AM,59.0,44.6,59,30.26,10.0,North,15.0,-,N/A,,Overcast,360,2013-05-24 13:35:00
8:55 AM,59.0,44.6,59,30.26,10.0,North,12.7,-,N/A,,Overcast,360,2013-05-24 13:55:00
9:15 AM,59.0,44.6,59,30.27,10.0,North,13.8,17.3,N/A,,Overcast,350,2013-05-24 14:15:00
9:35 AM,60.8,44.6,55,30.27,10.0,North,12.7,-,N/A,,Overcast,360,2013-05-24 14:35:00
9:55 AM,60.8,44.6,55,30.28,10.0,North,12.7,20.7,N/A,,Mostly Cloudy,350,2013-05-24 14:55:00
10:15 AM,60.8,42.8,52,30.28,10.0,North,10.4,17.3,N/A,,Scattered Clouds,360,2013-05-24 15:15:00
10:35 AM,62.6,44.6,52,30.28,10.0,North,12.7,-,N/A,,Clear,360,2013-05-24 15:35:00
10:55 AM,62.6,44.6,52,30.28,10.0,North,12.7,-,N/A,,Clear,10,2013-05-24 15:55:00
11:15 AM,62.6,42.8,48,30.28,10.0,NNW,15.0,19.6,N/A,,Clear,340,2013-05-24 16:15:00
11:35 AM,64.4,42.8,45,30.28,10.0,NNE,12.7,-,N/A,,Clear,20,2013-05-24 16:35:00
11:55 AM,64.4,41.0,42,30.28,10.0,NNE,10.4,17.3,N/A,,Clear,30,2013-05-24 16:55:00
12:15 PM,66.2,41.0,40,30.28,10.0,North,10.4,-,N/A,,Clear,10,2013-05-24 17:15:00
12:35 PM,68.0,39.2,35,30.28,10.0,North,10.4,17.3,N/A,,Clear,350,2013-05-24 17:35:00
12:55 PM,68.0,37.4,33,30.28,10.0,North,11.5,17.3,N/A,,Clear,10,2013-05-24 17:55:00
1:15 PM,68.0,37.4,33,30.27,10.0,North,9.2,-,N/A,,Clear,350,2013-05-24 18:15:00
1:35 PM,68.0,37.4,33,30.27,10.0,North,9.2,19.6,N/A,,Clear,10,2013-05-24 18:35:00
1:55 PM,68.0,37.4,33,30.27,10.0,North,11.5,17.3,N/A,,Clear,360,2013-05-24 18:55:00
2:15 PM,69.8,35.6,28,30.27,10.0,North,6.9,17.3,N/A,,Clear,10,2013-05-24 19:15:00
2:35 PM,69.8,37.4,31,30.27,10.0,North,6.9,-,N/A,,Clear,350,2013-05-24 19:35:00
2:55 PM,71.6,35.6,27,30.27,10.0,NNE,5.8,-,N/A,,Clear,20,2013-05-24 19:55:00
3:15 PM,71.6,35.6,27,30.27,10.0,NNE,11.5,-,N/A,,Clear,30,2013-05-24 20:15:00
3:35 PM,71.6,35.6,27,30.27,10.0,NNE,11.5,17.3,N/A,,Clear,20,2013-05-24 20:35:00
3:55 PM,71.6,35.6,27,30.26,10.0,North,11.5,17.3,N/A,,Clear,360,2013-05-24 20:55:00
4:15 PM,71.6,33.8,25,30.26,10.0,North,10.4,-,N/A,,Clear,10,2013-05-24 21:15:00
4:35 PM,71.6,35.6,27,30.26,10.0,North,9.2,16.1,N/A,,Clear,360,2013-05-24 21:35:00
4:55 PM,71.6,35.6,27,30.25,10.0,NNE,9.2,-,N/A,,Clear,20,2013-05-24 21:55:00
5:15 PM,71.6,37.4,29,30.25,10.0,North,11.5,-,N/A,,Clear,360,2013-05-24 22:15:00
5:35 PM,71.6,37.4,29,30.25,10.0,North,9.2,-,N/A,,Clear,350,2013-05-24 22:35:00
5:55 PM,71.6,33.8,25,30.25,10.0,North,11.5,-,N/A,,Clear,360,2013-05-24 22:55:00
6:15 PM,69.8,35.6,28,30.25,10.0,NNE,5.8,-,N/A,,Clear,20,2013-05-24 23:15:00
6:35 PM,69.8,37.4,31,30.25,10.0,North,8.1,-,N/A,,Clear,360,2013-05-24 23:35:00
6:55 PM,68.0,37.4,33,30.25,10.0,NNE,6.9,-,N/A,,Clear,20,2013-05-24 23:55:00
7:15 PM,68.0,39.2,35,30.24,10.0,NNE,5.8,-,N/A,,Clear,30,2013-05-25 00:15:00
7:35 PM,66.2,37.4,35,30.24,10.0,NNE,4.6,-,N/A,,Clear,20,2013-05-25 00:35:00
7:55 PM,62.6,42.8,48,30.25,10.0,Calm,Calm,-,N/A,,Clear,0,2013-05-25 00:55:00
8:15 PM,59.0,44.6,59,30.25,10.0,Calm,Calm,-,N/A,,Clear,0,2013-05-25 01:15:00
8:35 PM,59.0,44.6,59,30.25,10.0,Calm,Calm,-,N/A,,Clear,0,2013-05-25 01:35:00
8:55 PM,55.4,46.4,72,30.24,10.0,Calm,Calm,-,N/A,,Clear,0,2013-05-25 01:55:00
9:15 PM,57.2,46.4,67,30.25,10.0,Calm,Calm,-,N/A,,Clear,0,2013-05-25 02:15:00
9:35 PM,55.4,46.4,72,30.27,10.0,Calm,Calm,-,N/A,,Clear,0,2013-05-25 02:35:00
9:55 PM,55.4,46.4,72,30.28,10.0,Calm,Calm,-,N/A,,Clear,0,2013-05-25 02:55:00
10:15 PM,51.8,44.6,76,30.28,10.0,Calm,Calm,-,N/A,,Clear,0,2013-05-25 03:15:00
10:35 PM,53.6,46.4,77,30.29,10.0,Calm,Calm,-,N/A,,Clear,0,2013-05-25 03:35:00
10:55 PM,51.8,46.4,82,30.29,10.0,Calm,Calm,-,N/A,,Clear,0,2013-05-25 03:55:00
11:15 PM,51.8,44.6,76,30.29,10.0,Calm,Calm,-,N/A,,Clear,0,2013-05-25 04:15:00
11:35 PM,53.6,44.6,72,30.29,10.0,Calm,Calm,-,N/A,,Clear,0,2013-05-25 04:35:00
11:55 PM,53.6,44.6,72,30.29,10.0,Calm,Calm,-,N/A,,Clear,0,2013-05-25 04:55:00